createdAt,value
2023-03-04T00:00:59.617Z,29.90
2023-03-04T00:03:31.092Z,32.20
2023-03-04T00:06:02.080Z,36.30
2023-03-04T00:08:33.329Z,29.90
2023-03-04T00:11:04.184Z,37.30
2023-03-04T00:13:35.399Z,29.60
2023-03-04T00:16:06.822Z,35.10
2023-03-04T00:18:38.240Z,30.80
2023-03-04T00:21:09.035Z,31.10
2023-03-04T00:23:41.714Z,33.70
2023-03-04T00:26:13.487Z,31.90
2023-03-04T00:28:46.761Z,22.80
2023-03-04T00:31:17.433Z,31.60
2023-03-04T00:33:49.057Z,26.80
2023-03-04T00:36:19.701Z,30.20
2023-03-04T00:38:51.021Z,29.60
2023-03-04T00:41:21.607Z,28.00
2023-03-04T00:43:53.116Z,27.60
2023-03-04T00:46:23.990Z,28.70
2023-03-04T00:48:56.217Z,28.10
2023-03-04T00:51:26.760Z,29.70
2023-03-04T00:54:00.691Z,32.20
2023-03-04T00:56:31.818Z,22.20
2023-03-04T00:59:03.245Z,27.90
2023-03-04T01:01:33.832Z,31.20
2023-03-04T01:04:05.318Z,31.40
2023-03-04T01:06:36.886Z,30.20
2023-03-04T01:09:08.918Z,28.60
2023-03-04T01:11:39.854Z,28.90
2023-03-04T01:14:11.132Z,29.70
2023-03-04T01:16:41.851Z,29.50
2023-03-04T01:19:13.219Z,27.10
2023-03-04T01:21:43.725Z,31.10
2023-03-04T01:24:14.993Z,26.30
2023-03-04T01:26:45.602Z,30.00
2023-03-04T01:29:17.203Z,29.00
2023-03-04T01:31:47.783Z,28.40
2023-03-04T01:34:19.144Z,26.60
2023-03-04T01:36:50.398Z,17.80
2023-03-04T01:39:23.160Z,25.40
2023-03-04T01:41:55.128Z,28.70
2023-03-04T01:44:28.106Z,28.40
2023-03-04T01:49:29.371Z,24.30
2023-03-04T01:52:00.009Z,24.20
2023-03-04T01:54:31.666Z,30.80
2023-03-04T01:57:02.506Z,23.30
2023-03-04T01:59:34.046Z,25.90
2023-03-04T02:02:04.593Z,23.70
2023-03-04T02:04:36.214Z,27.40
2023-03-04T02:07:07.176Z,24.80
2023-03-04T02:09:38.558Z,24.40
2023-03-04T02:12:09.371Z,23.40
2023-03-04T02:14:41.430Z,18.60
2023-03-04T02:17:13.353Z,23.30
2023-03-04T02:19:50.712Z,26.40
2023-03-04T02:22:21.312Z,24.80
2023-03-04T02:24:54.755Z,22.50
2023-03-04T02:27:25.732Z,24.60
2023-03-04T02:29:57.021Z,22.40
2023-03-04T02:32:27.637Z,22.10
2023-03-04T02:34:59.189Z,25.10
2023-03-04T02:37:29.794Z,18.40
2023-03-04T02:40:01.691Z,24.50
2023-03-04T02:42:32.217Z,22.20
2023-03-04T02:45:03.505Z,22.50
2023-03-04T02:47:34.065Z,23.00
2023-03-04T02:50:05.542Z,18.30
2023-03-04T02:52:36.237Z,23.10
2023-03-04T02:55:08.977Z,17.90
2023-03-04T02:57:39.550Z,20.60
2023-03-04T03:00:12.073Z,21.90
2023-03-04T03:05:13.922Z,18.60
2023-03-04T03:07:44.633Z,17.40
2023-03-04T03:10:15.985Z,18.90
2023-03-04T03:12:46.725Z,20.00
2023-03-04T03:15:17.783Z,22.40
2023-03-04T03:17:48.546Z,21.20
2023-03-04T03:20:20.182Z,20.00
2023-03-04T03:22:50.888Z,16.00
2023-03-04T03:25:22.022Z,18.90
2023-03-04T03:27:52.750Z,23.90
2023-03-04T03:30:23.969Z,19.60
2023-03-04T03:32:54.522Z,22.20
2023-03-04T03:35:25.789Z,21.10
2023-03-04T03:37:56.302Z,21.00
2023-03-04T03:40:27.754Z,20.00
2023-03-04T03:42:58.256Z,20.50
2023-03-04T03:45:29.245Z,21.40
2023-03-04T03:47:59.955Z,18.40
2023-03-04T03:50:31.467Z,18.50
2023-03-04T03:53:02.042Z,22.90
2023-03-04T03:55:33.655Z,20.90
2023-03-04T03:58:04.310Z,22.00
2023-03-04T04:00:35.670Z,23.70
2023-03-04T04:03:06.420Z,21.50
2023-03-04T04:05:37.535Z,19.30
2023-03-04T04:08:08.272Z,22.00
2023-03-04T04:10:39.723Z,20.60
2023-03-04T04:13:10.762Z,21.30
2023-03-04T04:15:42.063Z,23.00
2023-03-04T04:18:12.740Z,22.10
2023-03-04T04:20:43.886Z,23.80
2023-03-04T04:23:14.412Z,24.00
2023-03-04T04:25:45.758Z,21.50
2023-03-04T04:28:16.292Z,22.10
2023-03-04T04:30:47.527Z,22.50
2023-03-04T04:33:18.075Z,20.50
2023-03-04T04:35:49.301Z,21.20
2023-03-04T04:38:20.011Z,24.10
2023-03-04T04:40:51.499Z,25.20
2023-03-04T04:43:22.021Z,25.30
2023-03-04T04:45:53.648Z,23.40
2023-03-04T04:48:24.413Z,25.90
2023-03-04T04:50:57.540Z,27.20
2023-03-04T04:53:28.129Z,24.60
2023-03-04T04:55:59.399Z,26.20
2023-03-04T04:58:29.831Z,24.40
2023-03-04T05:01:00.972Z,29.00
2023-03-04T05:03:32.007Z,28.30
2023-03-04T05:06:03.372Z,27.10
2023-03-04T05:08:34.125Z,25.90
2023-03-04T05:11:05.741Z,27.20
2023-03-04T05:13:36.560Z,26.70
2023-03-04T05:16:09.214Z,23.90
2023-03-04T05:18:39.764Z,25.80
2023-03-04T05:21:11.927Z,29.10
2023-03-04T05:23:43.139Z,24.70
2023-03-04T05:26:16.060Z,27.40
2023-03-04T05:28:46.891Z,28.20
2023-03-04T05:31:18.366Z,27.00
2023-03-04T05:33:48.976Z,25.00
2023-03-04T05:36:22.984Z,26.80
2023-03-04T05:38:53.522Z,27.50
2023-03-04T05:41:25.187Z,28.90
2023-03-04T05:43:56.721Z,30.00
2023-03-04T05:46:28.312Z,26.80
2023-03-04T05:48:58.907Z,25.30
2023-03-04T05:51:30.354Z,25.60
2023-03-04T05:54:00.879Z,26.30
2023-03-04T05:56:34.082Z,28.50
2023-03-04T05:59:04.601Z,25.40
2023-03-04T06:01:36.056Z,23.50
2023-03-04T06:04:06.980Z,26.90
2023-03-04T06:06:38.230Z,25.30
2023-03-04T06:09:09.124Z,26.80
2023-03-04T06:11:40.620Z,23.90
2023-03-04T06:14:11.284Z,23.10
2023-03-04T06:16:43.016Z,25.80
2023-03-04T06:19:13.674Z,22.80
2023-03-04T06:21:44.647Z,22.30
2023-03-04T06:24:15.226Z,21.80
2023-03-04T06:26:46.566Z,25.50
2023-03-04T06:29:17.191Z,27.40
2023-03-04T06:31:48.791Z,26.10
2023-03-04T06:34:19.554Z,24.20
2023-03-04T06:36:51.028Z,26.60
2023-03-04T06:39:21.658Z,28.60
2023-03-04T06:41:52.848Z,29.60
2023-03-04T06:44:23.324Z,28.90
2023-03-04T06:46:55.052Z,28.50
2023-03-04T06:49:25.816Z,28.90
2023-03-04T06:51:56.957Z,27.30
2023-03-04T06:54:27.795Z,27.90
2023-03-04T06:56:58.941Z,33.60
2023-03-04T06:59:29.463Z,27.20
2023-03-04T07:02:00.915Z,30.90
2023-03-04T07:04:31.762Z,30.30
2023-03-04T07:07:03.354Z,33.10
2023-03-04T07:09:34.250Z,30.10
2023-03-04T07:12:06.060Z,28.80
2023-03-04T07:14:36.653Z,30.80
2023-03-04T07:17:08.011Z,29.90
2023-03-04T07:19:38.552Z,32.60
2023-03-04T07:22:09.727Z,29.40
2023-03-04T07:24:40.386Z,30.90
2023-03-04T07:27:11.592Z,36.10
2023-03-04T07:29:42.091Z,30.10
2023-03-04T07:32:13.576Z,30.60
2023-03-04T07:34:44.160Z,29.20
2023-03-04T07:37:15.992Z,32.40
2023-03-04T07:39:46.629Z,34.30
2023-03-04T07:42:18.000Z,25.10
2023-03-04T07:44:49.238Z,29.60
2023-03-04T07:47:20.615Z,31.70
2023-03-04T07:49:51.040Z,35.50
2023-03-04T07:52:22.645Z,38.20
2023-03-04T07:54:53.210Z,38.50
2023-03-04T07:57:24.747Z,33.00
2023-03-04T07:59:55.228Z,40.70
2023-03-04T08:02:26.731Z,28.80
2023-03-04T08:04:57.437Z,36.70
2023-03-04T08:07:29.091Z,36.50
2023-03-04T08:09:59.928Z,39.80
2023-03-04T08:12:31.582Z,31.40
2023-03-04T08:15:02.272Z,32.10
2023-03-04T08:17:33.505Z,36.10
2023-03-04T08:20:04.525Z,33.90
2023-03-04T08:22:36.616Z,22.60
2023-03-04T08:25:07.703Z,29.20
2023-03-04T08:27:39.274Z,31.10
2023-03-04T08:30:13.166Z,36.70
2023-03-04T08:32:45.391Z,39.60
2023-03-04T08:35:15.958Z,38.20
2023-03-04T08:37:47.689Z,42.50
2023-03-04T08:40:18.360Z,40.70
2023-03-04T08:42:49.869Z,38.10
2023-03-04T08:45:20.445Z,36.90
2023-03-04T08:47:52.443Z,33.90
2023-03-04T08:50:23.130Z,34.40
2023-03-04T08:52:54.612Z,34.10
2023-03-04T08:55:25.460Z,31.60
2023-03-04T08:57:56.927Z,34.50
2023-03-04T09:00:27.511Z,31.90
2023-03-04T09:02:59.112Z,32.90
2023-03-04T09:05:29.785Z,39.20
2023-03-04T09:08:01.042Z,34.50
2023-03-04T09:10:32.012Z,34.60
2023-03-04T09:13:03.741Z,29.30
2023-03-04T09:15:36.276Z,32.20
2023-03-04T09:18:07.696Z,31.40
2023-03-04T09:20:38.186Z,30.40
2023-03-04T09:23:10.747Z,34.60
2023-03-04T09:25:42.015Z,31.00
2023-03-04T09:28:14.288Z,30.00
2023-03-04T09:30:45.211Z,30.40
2023-03-04T09:33:17.278Z,22.90
2023-03-04T09:35:49.220Z,30.60
2023-03-04T09:38:20.776Z,29.80
2023-03-04T09:40:51.731Z,25.60
2023-03-04T09:43:28.033Z,32.80
2023-03-04T09:46:00.233Z,22.50
2023-03-04T09:48:35.630Z,29.30
2023-03-04T09:51:16.957Z,31.90
2023-03-04T09:53:51.053Z,27.10
2023-03-04T09:56:21.518Z,29.30
2023-03-04T09:58:57.726Z,27.50
2023-03-04T10:01:31.196Z,29.70
2023-03-04T10:04:05.216Z,31.50
2023-03-04T10:06:36.053Z,31.80
2023-03-04T10:09:11.457Z,25.80
2023-03-04T10:11:43.953Z,28.00
2023-03-04T10:14:34.456Z,26.70
2023-03-04T10:17:08.322Z,33.70
2023-03-04T10:19:50.744Z,31.70
2023-03-04T10:22:25.371Z,30.50
2023-03-04T10:24:58.192Z,26.90
2023-03-04T10:27:30.349Z,26.80
2023-03-04T10:30:02.174Z,30.70
2023-03-04T10:32:32.714Z,35.40
2023-03-04T10:35:05.074Z,30.00
2023-03-04T10:37:46.504Z,33.40
2023-03-04T10:40:22.409Z,21.60
2023-03-04T10:42:53.248Z,32.50
2023-03-04T10:45:25.923Z,30.90
2023-03-04T10:47:57.167Z,34.00
2023-03-04T10:50:29.840Z,35.30
2023-03-04T10:53:00.468Z,37.00
2023-03-04T10:55:43.446Z,36.30
2023-03-04T10:58:15.011Z,35.30
2023-03-04T11:00:50.005Z,25.40
2023-03-04T11:03:31.044Z,34.90
2023-03-04T11:06:18.079Z,28.30
2023-03-04T11:08:54.228Z,37.80
2023-03-04T11:11:31.865Z,32.10
2023-03-04T11:14:03.173Z,36.90
2023-03-04T11:16:35.401Z,40.40
2023-03-04T11:19:07.913Z,36.60
2023-03-04T11:21:41.165Z,34.70
2023-03-04T11:24:28.401Z,27.50
2023-03-04T11:27:04.618Z,33.60
2023-03-04T11:29:38.266Z,37.30
2023-03-04T11:32:13.229Z,40.30
2023-03-04T11:34:48.462Z,35.10
2023-03-04T11:37:24.105Z,32.10
2023-03-04T11:39:56.764Z,35.30
2023-03-04T11:42:31.776Z,35.40
2023-03-04T11:45:02.872Z,28.40
2023-03-04T11:47:49.918Z,26.50
2023-03-04T11:50:30.142Z,29.60
2023-03-04T11:53:14.404Z,31.70
2023-03-04T11:55:48.658Z,34.70
2023-03-04T11:58:37.362Z,23.60
2023-03-04T12:01:09.449Z,28.50
2023-03-04T12:03:52.474Z,27.80
2023-03-04T12:06:33.168Z,30.10
2023-03-04T12:09:12.413Z,34.70
2023-03-04T12:11:47.123Z,33.80
2023-03-04T12:14:30.322Z,29.80
2023-03-04T12:17:20.591Z,31.00
2023-03-04T12:20:08.751Z,28.90
2023-03-04T12:22:44.699Z,26.80
2023-03-04T12:25:32.340Z,28.20
2023-03-04T12:28:10.537Z,30.90
2023-03-04T12:30:47.364Z,25.90
2023-03-04T12:33:23.422Z,29.70
2023-03-04T12:36:02.467Z,21.80
2023-03-04T12:38:49.306Z,24.60
2023-03-04T12:41:27.170Z,27.30
2023-03-04T12:44:01.518Z,29.20
2023-03-04T12:46:42.290Z,24.60
2023-03-04T12:49:25.820Z,27.20
2023-03-04T12:52:03.233Z,28.90
2023-03-04T12:54:36.441Z,27.90
2023-03-04T12:59:38.825Z,23.40
2023-03-04T13:02:22.277Z,28.60
2023-03-04T13:04:56.011Z,19.00
2023-03-04T13:07:35.464Z,21.60
2023-03-04T13:10:09.678Z,26.00
2023-03-04T13:12:50.961Z,27.30
2023-03-04T13:15:35.868Z,22.70
2023-03-04T13:18:28.121Z,20.90
2023-03-04T13:21:09.287Z,26.60
2023-03-04T13:23:40.531Z,23.40
2023-03-04T13:26:18.470Z,24.80
2023-03-04T13:28:53.831Z,27.80
2023-03-04T13:31:28.406Z,24.40
2023-03-04T13:34:03.292Z,23.70
2023-03-04T13:36:50.503Z,25.20
2023-03-04T13:39:29.283Z,23.30
2023-03-04T13:42:00.563Z,24.40
2023-03-04T13:45:00.586Z,25.90
2023-03-04T13:47:44.920Z,20.70
2023-03-04T13:50:26.504Z,24.30
2023-03-04T13:53:00.498Z,22.90
2023-03-04T13:55:37.368Z,24.50
2023-03-04T13:58:24.833Z,22.40
2023-03-04T14:00:56.736Z,24.20
2023-03-04T14:03:28.670Z,23.30
2023-03-04T14:06:12.951Z,20.50
2023-03-04T14:08:43.612Z,24.20
2023-03-04T14:11:18.638Z,24.20
2023-03-04T14:13:49.971Z,24.10
2023-03-04T14:16:22.800Z,21.00
2023-03-04T14:19:00.300Z,21.90
2023-03-04T14:21:32.255Z,22.70
2023-03-04T14:24:08.093Z,19.30
2023-03-04T14:26:40.180Z,20.90
2023-03-04T14:29:23.437Z,19.10
2023-03-04T14:31:55.531Z,23.00
2023-03-04T14:34:29.992Z,24.90
2023-03-04T14:37:01.713Z,15.80
2023-03-04T14:39:35.982Z,19.60
2023-03-04T14:42:11.006Z,23.30
2023-03-04T14:44:45.946Z,22.50
2023-03-04T14:47:20.248Z,19.00
2023-03-04T14:49:51.420Z,23.90
2023-03-04T14:52:35.026Z,23.70
2023-03-04T14:55:18.785Z,22.40
2023-03-04T14:57:51.775Z,23.80
2023-03-04T15:00:30.366Z,20.50
2023-03-04T15:03:03.230Z,23.30
2023-03-04T15:05:34.935Z,22.20
2023-03-04T15:08:07.177Z,21.00
2023-03-04T15:10:38.737Z,21.30
2023-03-04T15:13:10.946Z,25.40
2023-03-04T15:15:43.833Z,16.70
2023-03-04T15:18:19.836Z,22.10
2023-03-04T15:20:57.995Z,20.50
2023-03-04T15:23:29.744Z,19.70
2023-03-04T15:26:01.987Z,21.70
2023-03-04T15:28:34.548Z,17.40
2023-03-04T15:31:06.272Z,20.90
2023-03-04T15:33:39.709Z,20.90
2023-03-04T15:36:13.975Z,22.00
2023-03-04T15:38:47.939Z,21.70
2023-03-04T15:41:19.360Z,20.30
2023-03-04T15:43:50.502Z,19.90
2023-03-04T15:46:21.405Z,17.50
2023-03-04T15:48:52.394Z,20.80
2023-03-04T15:51:24.007Z,17.50
2023-03-04T15:53:58.511Z,20.00
2023-03-04T15:56:30.436Z,16.30
2023-03-04T15:59:04.328Z,19.80
2023-03-04T16:01:35.867Z,18.90
2023-03-04T16:04:06.844Z,20.10
2023-03-04T16:06:38.059Z,22.60
2023-03-04T16:09:14.679Z,19.10
2023-03-04T16:11:47.713Z,18.50
2023-03-04T16:14:18.923Z,17.30
2023-03-04T16:16:50.619Z,19.50
2023-03-04T16:19:21.662Z,18.60
2023-03-04T16:21:52.645Z,18.40
2023-03-04T16:24:23.453Z,21.00
2023-03-04T16:26:54.270Z,19.20
2023-03-04T16:29:25.407Z,17.70
2023-03-04T16:31:56.615Z,16.80
2023-03-04T16:34:27.915Z,17.50
2023-03-04T16:36:58.722Z,18.20
2023-03-04T16:39:30.209Z,20.10
2023-03-04T16:42:03.714Z,20.50
2023-03-04T16:47:05.657Z,14.00
2023-03-04T16:49:36.906Z,17.10
2023-03-04T16:52:08.543Z,17.40
2023-03-04T16:54:39.820Z,17.70
2023-03-04T16:57:13.024Z,16.70
2023-03-04T17:02:14.979Z,17.70
2023-03-04T17:04:46.944Z,17.70
2023-03-04T17:07:18.464Z,15.90
2023-03-04T17:09:50.965Z,17.60
2023-03-04T17:12:22.006Z,13.10
2023-03-04T17:14:53.047Z,18.10
2023-03-04T17:17:26.072Z,16.10
2023-03-04T17:19:57.117Z,16.40
2023-03-04T17:22:27.937Z,17.20
2023-03-04T17:24:59.152Z,19.70
2023-03-04T17:27:31.382Z,18.10
2023-03-04T17:30:03.176Z,18.80
2023-03-04T17:32:34.058Z,17.20
2023-03-04T17:35:06.168Z,16.90
2023-03-04T17:37:37.636Z,17.70
2023-03-04T17:40:11.636Z,17.00
2023-03-04T17:42:43.023Z,16.10
2023-03-04T17:45:14.587Z,17.70
2023-03-04T17:47:45.326Z,17.40
2023-03-04T17:50:16.425Z,17.90
2023-03-04T17:52:47.460Z,15.20
2023-03-04T17:55:18.803Z,16.00
2023-03-04T17:57:53.003Z,18.90
2023-03-04T18:00:24.836Z,16.80
2023-03-04T18:02:55.867Z,16.90
2023-03-04T18:05:27.174Z,17.10
2023-03-04T18:07:58.008Z,15.90
2023-03-04T18:10:29.167Z,18.00
2023-03-04T18:13:00.336Z,16.40
2023-03-04T18:15:32.208Z,17.00
2023-03-04T18:18:03.036Z,15.60
2023-03-04T18:20:34.777Z,16.60
2023-03-04T18:23:05.798Z,17.70
2023-03-04T18:25:36.777Z,18.20
2023-03-04T18:28:07.655Z,18.90
2023-03-04T18:30:39.557Z,18.50
2023-03-04T18:33:10.258Z,15.60
2023-03-04T18:35:41.509Z,15.70
2023-03-04T18:38:12.426Z,18.70
2023-03-04T18:40:44.907Z,18.70
2023-03-04T18:43:15.585Z,16.70
2023-03-04T18:45:47.859Z,19.40
2023-03-04T18:48:18.753Z,18.70
2023-03-04T18:50:52.557Z,16.30
2023-03-04T18:53:24.409Z,20.00
2023-03-04T18:55:57.294Z,18.20
2023-03-04T18:58:28.637Z,15.30
2023-03-04T19:01:01.251Z,16.10
2023-03-04T19:03:34.568Z,19.50
2023-03-04T19:08:35.709Z,11.90
2023-03-04T19:11:07.121Z,20.10
2023-03-04T19:13:38.060Z,19.60
2023-03-04T19:16:09.638Z,19.30
2023-03-04T19:18:40.653Z,20.40
2023-03-04T19:21:11.830Z,19.50
2023-03-04T19:23:43.246Z,21.90
2023-03-04T19:26:16.540Z,21.30
2023-03-04T19:28:48.020Z,23.40
2023-03-04T19:31:18.930Z,17.70
2023-03-04T19:45:56.101Z,20.50
2023-03-04T19:48:27.070Z,22.10
2023-03-04T19:50:57.834Z,19.70
2023-03-04T19:53:28.944Z,21.30
2023-03-04T19:56:00.051Z,20.50
2023-03-04T19:58:31.223Z,21.20
2023-03-04T20:01:02.631Z,22.20
2023-03-04T20:03:34.060Z,22.60
2023-03-04T20:06:05.634Z,18.80
2023-03-04T20:08:38.510Z,21.10
2023-03-04T20:11:12.870Z,21.90
2023-03-04T20:13:44.017Z,20.20
2023-03-04T20:16:15.277Z,24.50
2023-03-04T20:18:46.299Z,22.20
2023-03-04T20:21:17.235Z,22.10
2023-03-04T20:23:48.779Z,24.00
2023-03-04T20:26:19.927Z,23.20
2023-03-04T20:28:53.940Z,22.30
2023-03-04T20:31:25.664Z,19.70
2023-03-04T20:33:57.243Z,22.10
2023-03-04T20:36:28.737Z,19.80
2023-03-04T20:39:02.842Z,23.50
2023-03-04T20:41:45.218Z,23.60
2023-03-04T20:44:16.674Z,19.00
2023-03-04T20:46:47.940Z,20.40
2023-03-04T20:49:22.637Z,23.40
2023-03-04T20:51:54.135Z,22.30
2023-03-04T20:54:25.389Z,21.00
2023-03-04T20:56:56.280Z,20.60
2023-03-04T20:59:27.741Z,22.10
2023-03-04T21:02:00.254Z,17.80
2023-03-04T21:04:33.580Z,13.30
2023-03-04T21:07:04.634Z,14.20
2023-03-04T21:09:35.766Z,12.90
2023-03-04T21:12:07.476Z,14.60
2023-03-04T21:14:38.668Z,13.90
2023-03-04T21:17:09.295Z,14.40
2023-03-04T21:19:42.314Z,13.70
2023-03-04T21:22:14.694Z,17.40
2023-03-04T21:24:46.522Z,18.60
2023-03-04T21:27:18.321Z,17.30
2023-03-04T21:29:50.350Z,20.50
2023-03-04T21:32:25.427Z,16.40
2023-03-04T21:34:57.177Z,9.80
2023-03-04T21:37:27.701Z,8.00
2023-03-04T21:40:01.360Z,8.20
2023-03-04T21:42:32.223Z,5.20
2023-03-04T21:45:03.678Z,4.50
2023-03-04T21:47:35.423Z,4.50
2023-03-04T21:50:07.409Z,4.50
2023-03-04T21:52:38.146Z,4.40
2023-03-04T21:55:10.383Z,4.20
2023-03-04T21:57:41.128Z,4.60
2023-03-04T22:00:14.473Z,4.90
2023-03-04T22:02:45.297Z,4.00
2023-03-04T22:05:19.010Z,4.70
2023-03-04T22:07:50.177Z,5.60
2023-03-04T22:10:21.668Z,3.80
2023-03-04T22:12:53.426Z,4.10
2023-03-04T22:15:24.984Z,4.30
2023-03-04T22:17:55.727Z,4.00
2023-03-04T22:20:26.900Z,4.50
2023-03-04T22:22:57.497Z,4.10
2023-03-04T22:25:28.773Z,4.30
2023-03-04T22:27:59.469Z,4.80
2023-03-04T22:30:31.438Z,4.30
2023-03-04T22:33:02.276Z,4.20
2023-03-04T22:35:33.659Z,3.80
2023-03-04T22:38:04.452Z,4.10
2023-03-04T22:40:35.788Z,4.70
2023-03-04T22:43:06.528Z,4.30
2023-03-04T22:45:38.519Z,4.00
2023-03-04T22:48:10.275Z,4.60
2023-03-04T22:50:41.703Z,4.00
2023-03-04T22:53:12.243Z,5.50
2023-03-04T22:55:43.463Z,4.90
2023-03-04T22:58:14.209Z,4.70
2023-03-04T23:00:45.370Z,3.80
2023-03-04T23:03:16.147Z,4.90
2023-03-04T23:05:47.530Z,4.20
2023-03-04T23:08:18.300Z,5.10
2023-03-04T23:10:49.293Z,5.10
2023-03-04T23:13:20.027Z,5.00
2023-03-04T23:15:51.890Z,4.90
2023-03-04T23:18:22.740Z,5.00
2023-03-04T23:20:54.072Z,5.20
2023-03-04T23:23:25.211Z,5.30
2023-03-04T23:25:56.357Z,5.70
2023-03-04T23:28:27.093Z,5.50
2023-03-04T23:30:58.455Z,6.20
2023-03-04T23:33:29.071Z,7.00
2023-03-04T23:36:00.356Z,6.00
2023-03-04T23:38:31.044Z,7.50
2023-03-04T23:41:02.100Z,6.20
2023-03-04T23:43:33.646Z,6.60
2023-03-04T23:46:05.106Z,5.80
2023-03-04T23:48:36.456Z,6.40
2023-03-04T23:51:08.360Z,5.80
2023-03-04T23:53:39.752Z,5.30
2023-03-04T23:56:11.230Z,6.80
2023-03-04T23:58:42.982Z,6.50
